createdAt,value
2022-11-05T00:02:24.678Z,89.91
2022-11-05T00:05:09.803Z,89.76
2022-11-05T00:08:00.132Z,89.55
2022-11-05T00:10:31.528Z,89.36
2022-11-05T00:13:17.913Z,89.02
2022-11-05T00:16:04.348Z,89.09
2022-11-05T00:18:31.065Z,88.74
2022-11-05T00:20:57.573Z,88.52
2022-11-05T00:23:42.806Z,88.82
2022-11-05T00:26:11.565Z,88.42
2022-11-05T00:28:40.795Z,88.35
2022-11-05T00:31:10.122Z,88.43
2022-11-05T00:33:37.792Z,88.31
2022-11-05T00:36:05.682Z,88.68
2022-11-05T00:38:32.960Z,88.30
2022-11-05T00:40:59.632Z,88.36
2022-11-05T00:43:45.116Z,88.36
2022-11-05T00:46:11.674Z,88.20
2022-11-05T00:48:56.830Z,88.02
2022-11-05T00:51:23.567Z,88.26
2022-11-05T00:53:50.123Z,87.95
2022-11-05T00:56:16.611Z,88.05
2022-11-05T00:58:43.175Z,88.17
2022-11-05T01:01:10.566Z,87.92
2022-11-05T01:03:39.454Z,87.70
2022-11-05T01:06:10.367Z,87.69
2022-11-05T01:08:37.551Z,87.42
2022-11-05T01:11:10.638Z,87.80
2022-11-05T01:13:38.308Z,88.22
2022-11-05T01:16:07.843Z,88.17
2022-11-05T01:18:36.069Z,87.66
2022-11-05T01:21:10.750Z,88.12
2022-11-05T01:23:37.277Z,88.27
2022-11-05T01:26:03.942Z,88.21
2022-11-05T01:28:30.480Z,88.41
2022-11-05T01:30:57.305Z,88.25
2022-11-05T01:33:24.485Z,87.76
2022-11-05T01:35:51.836Z,87.83
2022-11-05T01:38:19.254Z,87.80
2022-11-05T01:40:46.152Z,87.71
2022-11-05T01:43:18.898Z,87.80
2022-11-05T01:45:49.578Z,87.34
2022-11-05T01:48:23.217Z,86.99
2022-11-05T01:50:55.154Z,87.21
2022-11-05T01:53:36.815Z,87.34
2022-11-05T01:56:08.324Z,87.56
2022-11-05T01:58:42.469Z,87.46
2022-11-05T02:01:09.197Z,87.29
2022-11-05T02:03:36.139Z,87.72
2022-11-05T02:06:03.125Z,87.71
2022-11-05T02:08:45.353Z,87.31
2022-11-05T02:11:15.897Z,87.23
2022-11-05T02:13:42.418Z,86.86
2022-11-05T02:16:18.977Z,86.82
2022-11-05T02:18:59.850Z,86.99
2022-11-05T02:21:50.515Z,86.98
2022-11-05T02:24:42.894Z,86.75
2022-11-05T02:27:18.939Z,87.35
2022-11-05T02:30:07.411Z,86.76
2022-11-05T02:32:43.495Z,86.83
2022-11-05T02:35:29.306Z,87.15
2022-11-05T02:38:02.705Z,87.00
2022-11-05T02:40:36.421Z,86.99
2022-11-05T02:43:16.280Z,86.84
2022-11-05T02:46:12.225Z,87.03
2022-11-05T02:48:50.503Z,87.21
2022-11-05T02:51:27.159Z,87.12
2022-11-05T02:54:05.509Z,87.22
2022-11-05T02:56:39.429Z,87.49
2022-11-05T02:59:05.976Z,87.54
2022-11-05T03:01:32.622Z,87.73
2022-11-05T03:04:01.532Z,87.74
2022-11-05T03:06:44.554Z,87.62
2022-11-05T03:09:11.939Z,87.44
2022-11-05T03:11:51.267Z,87.92
2022-11-05T03:14:30.320Z,87.03
2022-11-05T03:17:05.013Z,87.15
2022-11-05T03:19:42.478Z,87.53
2022-11-05T03:22:14.920Z,87.50
2022-11-05T03:24:47.522Z,87.50
2022-11-05T03:27:19.715Z,87.36
2022-11-05T03:29:53.006Z,87.10
2022-11-05T03:32:22.484Z,87.07
2022-11-05T03:34:55.494Z,86.99
2022-11-05T03:37:23.407Z,87.25
2022-11-05T03:39:55.884Z,87.15
2022-11-05T03:42:26.967Z,87.07
2022-11-05T03:44:57.886Z,87.44
2022-11-05T03:47:30.802Z,87.26
2022-11-05T03:50:22.443Z,87.26
2022-11-05T03:52:53.715Z,87.09
2022-11-05T03:55:26.376Z,87.51
2022-11-05T03:57:55.632Z,88.00
2022-11-05T04:00:23.475Z,88.08
2022-11-05T04:02:50.379Z,88.05
2022-11-05T04:05:17.117Z,88.64
2022-11-05T04:08:03.189Z,88.31
2022-11-05T04:10:48.342Z,88.22
2022-11-05T04:13:24.725Z,88.16
2022-11-05T04:16:12.196Z,88.37
2022-11-05T04:18:39.036Z,89.15
2022-11-05T04:21:25.018Z,89.27
2022-11-05T04:24:10.190Z,89.49
2022-11-05T04:26:44.189Z,90.01
2022-11-05T04:29:29.725Z,89.98
2022-11-05T04:31:56.452Z,90.29
2022-11-05T04:34:23.736Z,90.65
2022-11-05T04:36:51.754Z,90.50
2022-11-05T04:39:19.286Z,90.46
2022-11-05T04:41:48.219Z,90.66
2022-11-05T04:44:16.101Z,90.73
2022-11-05T04:46:42.712Z,90.77
2022-11-05T04:49:09.138Z,91.21
2022-11-05T04:51:35.623Z,90.94
2022-11-05T04:54:02.169Z,91.17
2022-11-05T04:56:28.615Z,91.35
2022-11-05T04:58:55.145Z,91.43
2022-11-05T05:01:23.425Z,91.25
2022-11-05T05:03:51.629Z,91.50
2022-11-05T05:06:18.826Z,91.48
2022-11-05T05:08:47.434Z,91.68
2022-11-05T05:11:15.854Z,91.58
2022-11-05T05:13:42.521Z,91.36
2022-11-05T05:16:16.311Z,91.80
2022-11-05T05:18:46.237Z,92.14
2022-11-05T05:21:32.107Z,92.16
2022-11-05T05:23:58.632Z,92.16
2022-11-05T05:26:25.100Z,91.86
2022-11-05T05:28:53.547Z,92.22
2022-11-05T05:31:21.249Z,92.03
2022-11-05T05:33:47.776Z,92.20
2022-11-05T05:36:14.856Z,91.86
2022-11-05T05:38:41.444Z,91.66
2022-11-05T05:41:07.888Z,91.85
2022-11-05T05:43:34.575Z,91.19
2022-11-05T05:46:04.382Z,91.27
2022-11-05T05:48:31.172Z,90.96
2022-11-05T05:51:03.221Z,90.89
2022-11-05T05:53:30.006Z,90.60
2022-11-05T05:55:57.222Z,90.44
2022-11-05T05:58:26.818Z,90.70
2022-11-05T06:00:54.280Z,90.08
2022-11-05T06:03:21.348Z,90.13
2022-11-05T06:05:47.788Z,90.15
2022-11-05T06:08:14.263Z,89.90
2022-11-05T06:10:40.768Z,89.86
2022-11-05T06:13:07.826Z,89.86
2022-11-05T06:15:36.058Z,89.94
2022-11-05T06:18:02.783Z,89.99
2022-11-05T06:20:29.531Z,89.44
2022-11-05T06:22:57.893Z,89.44
2022-11-05T06:25:25.732Z,89.67
2022-11-05T06:27:53.601Z,89.70
2022-11-05T06:30:21.645Z,89.99
2022-11-05T06:32:48.150Z,89.78
2022-11-05T06:35:14.615Z,89.79
2022-11-05T06:37:41.211Z,89.80
2022-11-05T06:40:08.881Z,90.08
2022-11-05T06:42:35.644Z,90.28
2022-11-05T06:45:02.195Z,90.03
2022-11-05T06:47:28.696Z,89.94
2022-11-05T06:49:56.911Z,89.72
2022-11-05T06:52:23.375Z,90.29
2022-11-05T06:54:49.826Z,90.57
2022-11-05T06:57:16.251Z,90.12
2022-11-05T06:59:42.730Z,90.28
2022-11-05T07:02:12.499Z,90.32
2022-11-05T07:04:39.314Z,90.34
2022-11-05T07:07:05.773Z,90.58
2022-11-05T07:09:33.265Z,90.64
2022-11-05T07:11:59.764Z,90.61
2022-11-05T07:14:26.267Z,90.35
2022-11-05T07:16:52.702Z,90.04
2022-11-05T07:19:20.125Z,90.20
2022-11-05T07:21:48.583Z,90.61
2022-11-05T07:24:15.651Z,90.16
2022-11-05T07:26:43.113Z,90.29
2022-11-05T07:29:09.766Z,90.44
2022-11-05T07:31:36.229Z,90.48
2022-11-05T07:34:02.750Z,90.66
2022-11-05T07:36:29.341Z,90.71
2022-11-05T07:39:00.135Z,90.85
2022-11-05T07:41:27.133Z,90.68
2022-11-05T07:43:53.636Z,90.93
2022-11-05T07:46:20.179Z,90.93
2022-11-05T07:48:47.003Z,90.71
2022-11-05T07:51:13.601Z,90.69
2022-11-05T07:53:45.065Z,91.03
2022-11-05T07:56:14.362Z,91.27
2022-11-05T07:58:41.014Z,91.29
2022-11-05T08:01:07.794Z,91.61
2022-11-05T08:03:36.032Z,91.12
2022-11-05T08:06:02.649Z,91.10
2022-11-05T08:08:29.670Z,91.62
2022-11-05T08:11:03.690Z,91.35
2022-11-05T08:13:30.259Z,91.97
2022-11-05T08:16:15.828Z,91.05
2022-11-05T08:18:43.849Z,91.22
2022-11-05T08:21:11.367Z,91.36
2022-11-05T08:23:39.308Z,91.36
2022-11-05T08:26:06.001Z,91.31
2022-11-05T08:28:32.490Z,91.72
2022-11-05T08:30:59.019Z,91.45
2022-11-05T08:33:26.089Z,91.33
2022-11-05T08:35:52.641Z,91.50
2022-11-05T08:38:20.234Z,91.68
2022-11-05T08:40:55.168Z,91.68
2022-11-05T08:43:22.155Z,91.67
2022-11-05T08:45:48.742Z,91.74
2022-11-05T08:48:17.201Z,91.80
2022-11-05T08:50:45.671Z,91.75
2022-11-05T08:53:12.751Z,91.61
2022-11-05T08:55:39.858Z,91.63
2022-11-05T08:58:12.593Z,91.02
2022-11-05T09:00:39.505Z,91.30
2022-11-05T09:03:08.601Z,91.11
2022-11-05T09:05:38.072Z,91.23
2022-11-05T09:08:09.746Z,91.15
2022-11-05T09:10:36.582Z,90.36
2022-11-05T09:13:04.353Z,90.67
2022-11-05T09:15:31.458Z,91.08
2022-11-05T09:17:58.001Z,90.97
2022-11-05T09:20:24.660Z,91.32
2022-11-05T09:22:51.671Z,90.38
2022-11-05T09:25:18.207Z,90.74
2022-11-05T09:27:44.881Z,90.69
2022-11-05T09:30:13.087Z,90.40
2022-11-05T09:32:39.714Z,90.32
2022-11-05T09:35:07.422Z,90.53
2022-11-05T09:37:34.206Z,90.55
2022-11-05T09:40:00.731Z,90.21
2022-11-05T09:42:35.689Z,90.19
2022-11-05T09:45:05.368Z,89.92
2022-11-05T09:47:36.816Z,89.83
2022-11-05T09:50:08.974Z,89.56
2022-11-05T09:52:35.591Z,89.78
2022-11-05T09:55:04.668Z,89.70
2022-11-05T09:57:41.174Z,89.43
2022-11-05T10:00:16.498Z,89.86
2022-11-05T10:02:55.588Z,90.13
2022-11-05T10:05:25.218Z,90.08
2022-11-05T10:07:59.411Z,90.01
2022-11-05T10:10:42.056Z,89.78
2022-11-05T10:13:23.345Z,89.53
2022-11-05T10:15:58.307Z,90.01
2022-11-05T10:18:31.228Z,89.93
2022-11-05T10:20:58.062Z,89.79
2022-11-05T10:23:26.800Z,89.33
2022-11-05T10:26:00.728Z,88.98
2022-11-05T10:28:30.875Z,89.33
2022-11-05T10:31:00.771Z,89.53
2022-11-05T10:33:40.053Z,88.54
2022-11-05T10:36:11.012Z,88.54
2022-11-05T10:38:37.773Z,88.21
2022-11-05T10:41:28.056Z,87.83
2022-11-05T10:44:00.691Z,87.57
2022-11-05T10:46:38.740Z,87.22
2022-11-05T10:49:20.479Z,86.96
2022-11-05T10:51:53.934Z,87.11
2022-11-05T10:54:22.945Z,86.79
2022-11-05T10:56:49.979Z,86.97
2022-11-05T10:59:35.440Z,86.16
2022-11-05T11:02:17.642Z,85.81
2022-11-05T11:04:50.860Z,84.67
2022-11-05T11:07:23.735Z,84.91
2022-11-05T11:09:51.748Z,84.35
2022-11-05T11:12:27.704Z,84.13
2022-11-05T11:15:02.834Z,84.13
2022-11-05T11:17:32.015Z,84.65
2022-11-05T11:20:22.177Z,83.88
2022-11-05T11:23:00.637Z,83.42
2022-11-05T11:25:30.972Z,82.48
2022-11-05T11:28:03.353Z,83.22
2022-11-05T11:30:30.265Z,82.30
2022-11-05T11:33:04.806Z,83.33
2022-11-05T11:35:31.580Z,82.51
2022-11-05T11:38:00.910Z,81.92
2022-11-05T11:40:33.101Z,82.72
2022-11-05T11:43:04.051Z,82.70
2022-11-05T11:45:38.856Z,83.06
2022-11-05T11:48:07.831Z,81.95
2022-11-05T11:50:38.848Z,81.52
2022-11-05T11:53:20.519Z,81.86
2022-11-05T11:56:03.315Z,82.26
2022-11-05T11:58:40.809Z,82.33
2022-11-05T12:01:35.809Z,81.82
2022-11-05T12:04:37.219Z,81.82
2022-11-05T12:07:05.735Z,81.71
2022-11-05T12:10:03.484Z,82.22
2022-11-05T12:12:43.141Z,80.88
2022-11-05T12:15:44.576Z,81.91
2022-11-05T12:18:30.692Z,82.35
2022-11-05T12:21:11.814Z,82.01
2022-11-05T12:23:52.459Z,81.26
2022-11-05T12:26:23.539Z,81.41
2022-11-05T12:29:19.576Z,81.77
2022-11-05T12:31:55.930Z,81.70
2022-11-05T12:34:37.683Z,81.04
2022-11-05T12:37:24.658Z,81.59
2022-11-05T12:40:35.082Z,81.10
2022-11-05T12:43:12.051Z,80.82
2022-11-05T12:45:51.134Z,80.27
2022-11-05T12:48:36.763Z,80.92
2022-11-05T12:51:13.821Z,80.18
2022-11-05T12:53:56.892Z,78.93
2022-11-05T12:56:47.569Z,79.17
2022-11-05T12:59:39.161Z,78.60
2022-11-05T13:02:26.561Z,78.69
2022-11-05T13:05:05.359Z,78.93
2022-11-05T13:07:35.893Z,78.94
2022-11-05T13:10:14.145Z,79.61
2022-11-05T13:12:43.084Z,79.33
2022-11-05T13:15:26.109Z,80.07
2022-11-05T13:17:59.912Z,79.51
2022-11-05T13:20:32.495Z,78.46
2022-11-05T13:23:07.209Z,79.14
2022-11-05T13:25:42.969Z,78.59
2022-11-05T13:28:14.413Z,78.58
2022-11-05T13:30:45.999Z,79.49
2022-11-05T13:33:16.955Z,78.68
2022-11-05T13:36:12.054Z,79.95
2022-11-05T13:39:00.556Z,79.56
2022-11-05T13:41:27.043Z,78.92
2022-11-05T13:43:57.598Z,79.03
2022-11-05T13:47:11.854Z,78.77
2022-11-05T13:49:49.913Z,78.08
2022-11-05T13:52:36.630Z,78.30
2022-11-05T13:55:16.714Z,78.32
2022-11-05T13:58:00.485Z,79.06
2022-11-05T14:00:30.862Z,78.04
2022-11-05T14:03:05.518Z,79.17
2022-11-05T14:05:39.766Z,78.98
2022-11-05T14:08:11.329Z,79.49
2022-11-05T14:10:43.509Z,79.68
2022-11-05T14:13:23.424Z,80.24
2022-11-05T14:16:02.084Z,79.56
2022-11-05T14:18:37.094Z,80.68
2022-11-05T14:21:05.580Z,79.82
2022-11-05T14:23:48.941Z,79.10
2022-11-05T14:26:20.168Z,79.40
2022-11-05T14:28:50.776Z,79.55
2022-11-05T14:31:18.312Z,78.16
2022-11-05T14:33:54.702Z,79.27
2022-11-05T14:36:21.146Z,79.38
2022-11-05T14:38:51.617Z,78.99
2022-11-05T14:41:20.023Z,79.83
2022-11-05T14:43:58.555Z,79.68
2022-11-05T14:46:38.736Z,78.93
2022-11-05T14:49:09.718Z,78.98
2022-11-05T14:51:40.357Z,79.26
2022-11-05T14:54:21.559Z,78.41
2022-11-05T14:56:56.356Z,78.68
2022-11-05T14:59:24.353Z,79.47
2022-11-05T15:01:51.008Z,79.75
2022-11-05T15:04:36.271Z,80.13
2022-11-05T15:07:02.779Z,80.65
2022-11-05T15:09:43.680Z,80.41
2022-11-05T15:12:19.535Z,80.00
2022-11-05T15:14:55.221Z,80.13
2022-11-05T15:17:30.149Z,80.90
2022-11-05T15:20:08.790Z,80.73
2022-11-05T15:22:43.567Z,80.78
2022-11-05T15:25:21.434Z,79.44
2022-11-05T15:28:10.668Z,80.59
2022-11-05T15:30:37.510Z,79.84
2022-11-05T15:33:10.682Z,80.60
2022-11-05T15:35:40.538Z,80.42
2022-11-05T15:38:26.482Z,80.56
2022-11-05T15:41:00.712Z,81.22
2022-11-05T15:43:27.444Z,81.01
2022-11-05T15:46:07.014Z,81.02
2022-11-05T15:48:35.695Z,81.29
2022-11-05T15:51:02.540Z,80.73
2022-11-05T15:54:29.182Z,81.03
2022-11-05T15:56:49.158Z,81.12
2022-11-05T15:59:18.645Z,81.12
2022-11-05T16:01:47.934Z,80.23
2022-11-05T16:04:19.392Z,80.75
2022-11-05T16:06:49.237Z,80.91
2022-11-05T16:09:24.780Z,80.97
2022-11-05T16:12:11.878Z,81.39
2022-11-05T16:14:38.939Z,81.49
2022-11-05T16:17:21.662Z,81.26
2022-11-05T16:19:52.345Z,81.20
2022-11-05T16:22:19.615Z,81.25
2022-11-05T16:24:46.780Z,81.18
2022-11-05T16:27:19.431Z,81.40
2022-11-05T16:29:52.105Z,81.54
2022-11-05T16:32:28.509Z,81.42
2022-11-05T16:35:01.584Z,80.77
2022-11-05T16:37:33.515Z,81.45
2022-11-05T16:40:02.184Z,81.30
2022-11-05T16:42:32.837Z,82.11
2022-11-05T16:44:59.378Z,82.80
2022-11-05T16:47:26.409Z,82.70
2022-11-05T16:49:52.987Z,82.66
2022-11-05T16:52:19.645Z,82.67
2022-11-05T16:54:47.293Z,82.90
2022-11-05T16:57:25.746Z,83.27
2022-11-05T16:59:53.719Z,82.92
2022-11-05T17:02:20.749Z,83.24
2022-11-05T17:04:48.227Z,83.11
2022-11-05T17:07:14.869Z,83.18
2022-11-05T17:09:41.563Z,83.49
2022-11-05T17:12:09.946Z,83.77
2022-11-05T17:14:36.903Z,84.03
2022-11-05T17:17:03.926Z,84.31
2022-11-05T17:19:30.614Z,84.22
2022-11-05T17:21:57.508Z,84.17
2022-11-05T17:24:24.479Z,84.22
2022-11-05T17:26:51.205Z,84.16
2022-11-05T17:29:17.770Z,84.49
2022-11-05T17:31:44.278Z,84.46
2022-11-05T17:34:11.177Z,84.23
2022-11-05T17:36:37.716Z,83.69
2022-11-05T17:39:04.410Z,83.78
2022-11-05T17:41:31.002Z,84.31
2022-11-05T17:43:57.981Z,84.53
2022-11-05T17:46:27.297Z,84.88
2022-11-05T17:48:53.815Z,85.26
2022-11-05T17:51:20.963Z,84.82
2022-11-05T17:53:50.226Z,84.84
2022-11-05T17:56:30.540Z,85.15
2022-11-05T17:59:01.350Z,85.05
2022-11-05T18:01:31.453Z,84.78
2022-11-05T18:04:01.249Z,84.81
2022-11-05T18:06:30.653Z,85.13
2022-11-05T18:08:57.160Z,85.03
2022-11-05T18:11:23.740Z,84.76
2022-11-05T18:13:50.314Z,85.11
2022-11-05T18:16:16.983Z,85.10
2022-11-05T18:18:43.488Z,85.35
2022-11-05T18:21:09.955Z,85.65
2022-11-05T18:23:36.484Z,86.07
2022-11-05T18:26:09.172Z,86.22
2022-11-05T18:28:36.687Z,85.99
2022-11-05T18:31:05.571Z,86.19
2022-11-05T18:33:33.894Z,86.37
2022-11-05T18:36:00.390Z,86.05
2022-11-05T18:38:26.938Z,86.20
2022-11-05T18:40:53.507Z,86.26
2022-11-05T18:43:21.039Z,86.38
2022-11-05T18:45:55.373Z,86.62
2022-11-05T18:48:21.949Z,86.65
2022-11-05T18:50:49.638Z,86.48
2022-11-05T18:53:16.227Z,86.37
2022-11-05T18:55:43.917Z,86.07
2022-11-05T18:58:10.725Z,85.84
2022-11-05T19:00:39.864Z,85.99
2022-11-05T19:03:07.298Z,85.91
2022-11-05T19:05:34.663Z,86.01
2022-11-05T19:08:01.709Z,85.91
2022-11-05T19:10:28.487Z,85.71
2022-11-05T19:12:55.100Z,85.55
2022-11-05T19:15:21.732Z,85.48
2022-11-05T19:17:49.246Z,85.16
2022-11-05T19:20:15.768Z,85.44
2022-11-05T19:22:42.285Z,85.41
2022-11-05T19:25:08.835Z,85.25
2022-11-05T19:27:36.765Z,84.90
2022-11-05T19:30:04.875Z,85.13
2022-11-05T19:32:31.385Z,84.60
2022-11-05T19:34:57.930Z,85.02
2022-11-05T19:37:24.431Z,85.17
2022-11-05T19:39:50.943Z,84.57
2022-11-05T19:42:17.587Z,84.70
2022-11-05T19:44:44.241Z,84.81
2022-11-05T19:47:10.771Z,85.20
2022-11-05T19:49:37.296Z,84.98
2022-11-05T19:52:03.925Z,85.36
2022-11-05T19:54:30.540Z,84.33
2022-11-05T19:56:58.424Z,84.99
2022-11-05T19:59:24.974Z,84.62
2022-11-05T20:01:51.574Z,84.55
2022-11-05T20:04:19.061Z,84.55
2022-11-05T20:06:45.641Z,84.33
2022-11-05T20:09:22.568Z,84.32
2022-11-05T20:11:53.302Z,84.38
2022-11-05T20:14:19.885Z,84.65
2022-11-05T20:16:46.787Z,84.62
2022-11-05T20:19:16.109Z,84.48
2022-11-05T20:21:43.186Z,83.88
2022-11-05T20:24:12.141Z,84.06
2022-11-05T20:26:39.362Z,84.11
2022-11-05T20:29:06.094Z,84.06
2022-11-05T20:31:32.734Z,84.09
2022-11-05T20:33:59.280Z,84.35
2022-11-05T20:36:27.552Z,83.97
2022-11-05T20:38:58.031Z,83.93
2022-11-05T20:41:28.289Z,84.43
2022-11-05T20:43:54.998Z,84.52
2022-11-05T20:46:22.744Z,84.00
2022-11-05T20:48:49.901Z,84.15
2022-11-05T20:51:19.288Z,84.14
2022-11-05T20:53:46.510Z,84.08
2022-11-05T20:56:25.721Z,84.06
2022-11-05T20:58:53.057Z,83.95
2022-11-05T21:01:20.341Z,84.25
2022-11-05T21:03:48.864Z,84.03
2022-11-05T21:06:16.372Z,84.14
2022-11-05T21:08:43.099Z,84.17
2022-11-05T21:11:10.576Z,83.95
2022-11-05T21:13:37.461Z,84.13
2022-11-05T21:16:06.425Z,84.32
2022-11-05T21:18:37.300Z,84.47
2022-11-05T21:21:10.948Z,84.05
2022-11-05T21:23:37.492Z,84.29
2022-11-05T21:26:05.966Z,84.02
2022-11-05T21:28:32.896Z,84.06
2022-11-05T21:31:03.713Z,83.96
2022-11-05T21:33:30.819Z,84.04
2022-11-05T21:35:57.727Z,84.10
2022-11-05T21:38:25.388Z,84.18
2022-11-05T21:40:51.863Z,84.16
2022-11-05T21:43:18.362Z,84.51
2022-11-05T21:45:45.528Z,84.42
2022-11-05T21:48:16.073Z,84.51
2022-11-05T21:51:01.283Z,84.39
2022-11-05T21:53:46.879Z,84.31
2022-11-05T21:56:37.571Z,84.30
2022-11-05T21:59:23.471Z,84.30
2022-11-05T22:01:51.637Z,84.55
2022-11-05T22:04:19.348Z,84.23
2022-11-05T22:06:45.774Z,84.70
2022-11-05T22:09:12.264Z,84.83
2022-11-05T22:11:39.924Z,84.97
2022-11-05T22:14:06.481Z,85.08
2022-11-05T22:16:34.131Z,84.85
2022-11-05T22:19:00.612Z,84.66
2022-11-05T22:24:18.794Z,84.57
2022-11-05T22:26:45.976Z,84.81
2022-11-05T22:29:13.058Z,84.71
2022-11-05T22:31:39.757Z,84.89
2022-11-05T22:34:06.710Z,84.61
2022-11-05T22:36:34.538Z,84.46
2022-11-05T22:39:01.964Z,84.64
2022-11-05T22:41:28.964Z,84.91
2022-11-05T22:43:55.838Z,84.92
2022-11-05T22:46:24.922Z,84.72
2022-11-05T22:48:52.091Z,84.82
2022-11-05T22:51:23.073Z,85.22
2022-11-05T22:53:50.180Z,84.75
2022-11-05T22:56:20.211Z,84.79
2022-11-05T22:58:48.405Z,84.75
2022-11-05T23:01:17.479Z,84.75
2022-11-05T23:03:45.826Z,84.68
2022-11-05T23:06:33.419Z,84.67
2022-11-05T23:09:18.973Z,84.59
2022-11-05T23:11:49.282Z,84.59
2022-11-05T23:14:15.787Z,85.10
2022-11-05T23:17:01.423Z,85.11
2022-11-05T23:19:47.404Z,84.82
2022-11-05T23:22:35.873Z,85.35
2022-11-05T23:25:02.765Z,85.02
2022-11-05T23:27:31.133Z,85.36
2022-11-05T23:29:59.161Z,85.16
2022-11-05T23:32:28.229Z,85.09
2022-11-05T23:34:56.623Z,85.41
2022-11-05T23:37:49.567Z,85.44
2022-11-05T23:40:20.792Z,85.58
2022-11-05T23:43:06.342Z,85.94
2022-11-05T23:45:49.667Z,85.76
2022-11-05T23:48:25.605Z,85.70
2022-11-05T23:51:00.142Z,86.07
2022-11-05T23:53:27.300Z,85.67
2022-11-05T23:55:59.000Z,86.08
2022-11-05T23:58:25.876Z,86.10
